sensor_id;sensor_type;location;lat;lon;timestamp;pressure;altitude;pressure_sealevel;temperature;humidity
59337;BME280;45115;52.002;4.686;2023-03-23T00:01:26;100237.75;;;12.31;81.71
59337;BME280;45115;52.002;4.686;2023-03-23T00:03:56;100235.16;;;12.22;82.33
59337;BME280;45115;52.002;4.686;2023-03-23T00:06:25;100228.63;;;12.15;82.63
59337;BME280;45115;52.002;4.686;2023-03-23T00:08:54;100223.47;;;12.12;82.78
59337;BME280;45115;52.002;4.686;2023-03-23T00:11:26;100222.78;;;12.18;81.92
59337;BME280;45115;52.002;4.686;2023-03-23T00:13:56;100217.81;;;12.13;82.46
59337;BME280;45115;52.002;4.686;2023-03-23T00:16:29;100222.59;;;12.19;82.25
59337;BME280;45115;52.002;4.686;2023-03-23T00:18:57;100223.47;;;12.20;82.08
59337;BME280;45115;52.002;4.686;2023-03-23T00:21:26;100221.25;;;12.15;82.22
59337;BME280;45115;52.002;4.686;2023-03-23T00:23:58;100215.25;;;12.20;82.13
59337;BME280;45115;52.002;4.686;2023-03-23T00:26:25;100217.28;;;12.18;82.39
59337;BME280;45115;52.002;4.686;2023-03-23T00:28:53;100210.06;;;12.09;82.86
59337;BME280;45115;52.002;4.686;2023-03-23T00:31:20;100202.34;;;12.12;82.08
59337;BME280;45115;52.002;4.686;2023-03-23T00:33:48;100202.22;;;12.14;82.07
59337;BME280;45115;52.002;4.686;2023-03-23T00:36:14;100189.50;;;12.13;81.94
59337;BME280;45115;52.002;4.686;2023-03-23T00:38:43;100198.44;;;12.07;82.68
59337;BME280;45115;52.002;4.686;2023-03-23T00:41:12;100193.63;;;12.17;81.65
59337;BME280;45115;52.002;4.686;2023-03-23T00:43:40;100198.94;;;12.18;81.72
59337;BME280;45115;52.002;4.686;2023-03-23T00:46:08;100193.09;;;12.21;81.21
59337;BME280;45115;52.002;4.686;2023-03-23T00:48:35;100176.97;;;12.18;81.28
59337;BME280;45115;52.002;4.686;2023-03-23T00:51:07;100178.03;;;12.17;81.40
59337;BME280;45115;52.002;4.686;2023-03-23T00:53:36;100184.69;;;12.15;81.58
59337;BME280;45115;52.002;4.686;2023-03-23T00:56:04;100177.16;;;12.17;81.94
59337;BME280;45115;52.002;4.686;2023-03-23T00:58:30;100178.88;;;12.10;81.65
59337;BME280;45115;52.002;4.686;2023-03-23T01:00:57;100184.53;;;12.08;81.86
59337;BME280;45115;52.002;4.686;2023-03-23T01:03:24;100188.47;;;12.06;82.02
59337;BME280;45115;52.002;4.686;2023-03-23T01:05:52;100197.56;;;12.06;81.80
59337;BME280;45115;52.002;4.686;2023-03-23T01:08:22;100194.66;;;12.08;81.73
59337;BME280;45115;52.002;4.686;2023-03-23T01:10:50;100172.50;;;12.09;81.67
59337;BME280;45115;52.002;4.686;2023-03-23T01:13:17;100164.28;;;12.09;81.29
59337;BME280;45115;52.002;4.686;2023-03-23T01:15:44;100153.13;;;12.03;81.48
59337;BME280;45115;52.002;4.686;2023-03-23T01:18:12;100164.09;;;12.11;81.11
59337;BME280;45115;52.002;4.686;2023-03-23T01:20:38;100149.84;;;12.07;81.66
59337;BME280;45115;52.002;4.686;2023-03-23T01:23:07;100146.41;;;12.05;81.72
59337;BME280;45115;52.002;4.686;2023-03-23T01:25:36;100156.38;;;12.06;81.81
59337;BME280;45115;52.002;4.686;2023-03-23T01:28:02;100146.41;;;12.05;81.74
59337;BME280;45115;52.002;4.686;2023-03-23T01:30:29;100147.63;;;12.03;81.62
59337;BME280;45115;52.002;4.686;2023-03-23T01:32:56;100154.81;;;12.04;81.92
59337;BME280;45115;52.002;4.686;2023-03-23T01:35:23;100153.13;;;12.03;81.51
59337;BME280;45115;52.002;4.686;2023-03-23T01:37:51;100145.22;;;12.08;81.13
59337;BME280;45115;52.002;4.686;2023-03-23T01:40:18;100160.50;;;12.10;81.24
59337;BME280;45115;52.002;4.686;2023-03-23T01:42:47;100158.78;;;12.09;81.66
59337;BME280;45115;52.002;4.686;2023-03-23T01:45:25;100155.16;;;12.09;81.33
59337;BME280;45115;52.002;4.686;2023-03-23T01:48:00;100137.69;;;12.10;81.25
59337;BME280;45115;52.002;4.686;2023-03-23T01:50:33;100136.47;;;12.12;81.06
59337;BME280;45115;52.002;4.686;2023-03-23T01:53:04;100130.13;;;12.12;81.38
59337;BME280;45115;52.002;4.686;2023-03-23T01:55:36;100141.44;;;12.09;81.87
59337;BME280;45115;52.002;4.686;2023-03-23T01:58:06;100117.09;;;12.06;81.45
59337;BME280;45115;52.002;4.686;2023-03-23T02:00:34;100124.44;;;12.05;81.67
59337;BME280;45115;52.002;4.686;2023-03-23T02:03:02;100121.72;;;12.05;81.99
59337;BME280;45115;52.002;4.686;2023-03-23T02:05:36;100135.94;;;12.09;81.79
59337;BME280;45115;52.002;4.686;2023-03-23T02:08:13;100125.50;;;12.04;82.03
59337;BME280;45115;52.002;4.686;2023-03-23T02:10:41;100136.47;;;12.04;81.74
59337;BME280;45115;52.002;4.686;2023-03-23T02:13:11;100136.47;;;12.04;82.31
59337;BME280;45115;52.002;4.686;2023-03-23T02:15:45;100141.44;;;12.01;82.46
59337;BME280;45115;52.002;4.686;2023-03-23T02:18:21;100134.59;;;12.05;81.91
59337;BME280;45115;52.002;4.686;2023-03-23T02:21:05;100139.75;;;12.00;82.57
59337;BME280;45115;52.002;4.686;2023-03-23T02:27:09;100117.63;;;12.01;82.53
59337;BME280;45115;52.002;4.686;2023-03-23T02:32:36;100140.78;;;12.07;82.48
59337;BME280;45115;52.002;4.686;2023-03-23T02:35:08;100122.22;;;12.09;81.91
59337;BME280;45115;52.002;4.686;2023-03-23T02:37:39;100124.66;;;12.12;82.01
59337;BME280;45115;52.002;4.686;2023-03-23T02:40:12;100112.47;;;12.06;81.90
59337;BME280;45115;52.002;4.686;2023-03-23T02:42:43;100115.72;;;12.10;81.50
59337;BME280;45115;52.002;4.686;2023-03-23T02:45:14;100117.94;;;12.14;81.50
59337;BME280;45115;52.002;4.686;2023-03-23T02:47:42;100111.94;;;12.19;81.44
59337;BME280;45115;52.002;4.686;2023-03-23T02:50:13;100115.03;;;12.24;80.89
59337;BME280;45115;52.002;4.686;2023-03-23T02:52:43;100129.09;;;12.21;81.25
59337;BME280;45115;52.002;4.686;2023-03-23T02:55:11;100121.22;;;12.26;81.09
59337;BME280;45115;52.002;4.686;2023-03-23T02:57:39;100124.66;;;12.28;80.78
59337;BME280;45115;52.002;4.686;2023-03-23T03:00:13;100114.34;;;12.22;80.92
59337;BME280;45115;52.002;4.686;2023-03-23T03:02:43;100127.53;;;12.26;80.95
59337;BME280;45115;52.002;4.686;2023-03-23T03:05:21;100123.59;;;12.29;80.73
59337;BME280;45115;52.002;4.686;2023-03-23T03:07:56;100124.28;;;12.23;81.07
59337;BME280;45115;52.002;4.686;2023-03-23T03:10:31;100129.94;;;12.21;81.52
59337;BME280;45115;52.002;4.686;2023-03-23T03:13:05;100117.78;;;12.24;81.76
59337;BME280;45115;52.002;4.686;2023-03-23T03:15:36;100117.44;;;12.19;81.90
59337;BME280;45115;52.002;4.686;2023-03-23T03:18:09;100097.72;;;12.15;82.23
59337;BME280;45115;52.002;4.686;2023-03-23T03:20:44;100100.13;;;12.10;83.05
59337;BME280;45115;52.002;4.686;2023-03-23T03:23:14;100107.50;;;12.10;82.77
59337;BME280;45115;52.002;4.686;2023-03-23T03:25:44;100110.41;;;12.08;82.93
59337;BME280;45115;52.002;4.686;2023-03-23T03:28:16;100106.44;;;12.11;83.16
59337;BME280;45115;52.002;4.686;2023-03-23T03:30:49;100106.44;;;11.95;84.79
59337;BME280;45115;52.002;4.686;2023-03-23T03:33:20;100113.00;;;11.86;84.43
59337;BME280;45115;52.002;4.686;2023-03-23T03:35:53;100110.06;;;11.87;84.09
59337;BME280;45115;52.002;4.686;2023-03-23T03:38:21;100109.03;;;11.96;83.88
59337;BME280;45115;52.002;4.686;2023-03-23T03:40:49;100112.97;;;11.94;83.89
59337;BME280;45115;52.002;4.686;2023-03-23T03:43:16;100120.88;;;11.89;84.71
59337;BME280;45115;52.002;4.686;2023-03-23T03:45:43;100101.66;;;11.81;84.49
59337;BME280;45115;52.002;4.686;2023-03-23T03:48:10;100111.94;;;11.87;84.41
59337;BME280;45115;52.002;4.686;2023-03-23T03:50:37;100112.47;;;11.82;84.11
59337;BME280;45115;52.002;4.686;2023-03-23T03:53:06;100114.69;;;11.87;83.64
59337;BME280;45115;52.002;4.686;2023-03-23T03:55:32;100113.66;;;11.88;83.61
59337;BME280;45115;52.002;4.686;2023-03-23T03:58:03;100108.84;;;11.82;84.10
59337;BME280;45115;52.002;4.686;2023-03-23T04:00:50;100112.28;;;11.76;84.02
59337;BME280;45115;52.002;4.686;2023-03-23T04:03:22;100111.75;;;11.72;84.13
59337;BME280;45115;52.002;4.686;2023-03-23T04:06:00;100114.00;;;11.77;83.50
59337;BME280;45115;52.002;4.686;2023-03-23T04:08:30;100123.44;;;11.82;82.58
59337;BME280;45115;52.002;4.686;2023-03-23T04:10:57;100134.59;;;11.89;82.45
59337;BME280;45115;52.002;4.686;2023-03-23T04:13:25;100126.19;;;11.82;83.00
59337;BME280;45115;52.002;4.686;2023-03-23T04:16:24;100137.69;;;11.86;82.36
59337;BME280;45115;52.002;4.686;2023-03-23T04:18:55;100136.81;;;11.93;82.32
59337;BME280;45115;52.002;4.686;2023-03-23T04:21:24;100138.88;;;11.91;82.08
59337;BME280;45115;52.002;4.686;2023-03-23T04:23:55;100132.19;;;11.86;82.38
59337;BME280;45115;52.002;4.686;2023-03-23T04:26:25;100140.06;;;11.89;82.10
59337;BME280;45115;52.002;4.686;2023-03-23T04:28:55;100147.28;;;11.90;82.08
59337;BME280;45115;52.002;4.686;2023-03-23T04:31:32;100149.16;;;11.97;81.97
59337;BME280;45115;52.002;4.686;2023-03-23T04:34:17;100157.94;;;11.93;82.81
59337;BME280;45115;52.002;4.686;2023-03-23T04:36:46;100150.19;;;11.80;83.04
59337;BME280;45115;52.002;4.686;2023-03-23T04:39:20;100160.47;;;11.78;83.49
59337;BME280;45115;52.002;4.686;2023-03-23T04:41:46;100181.03;;;11.66;84.29
59337;BME280;45115;52.002;4.686;2023-03-23T04:44:34;100187.50;;;11.57;85.79
59337;BME280;45115;52.002;4.686;2023-03-23T04:47:09;100176.66;;;11.48;86.23
59337;BME280;45115;52.002;4.686;2023-03-23T04:49:43;100188.66;;;11.39;87.00
59337;BME280;45115;52.002;4.686;2023-03-23T04:52:24;100192.72;;;11.35;87.99
59337;BME280;45115;52.002;4.686;2023-03-23T04:55:00;100184.44;;;11.18;88.87
59337;BME280;45115;52.002;4.686;2023-03-23T04:57:27;100195.53;;;11.09;90.52
59337;BME280;45115;52.002;4.686;2023-03-23T05:00:13;100187.59;;;10.98;90.74
59337;BME280;45115;52.002;4.686;2023-03-23T05:02:46;100186.72;;;10.97;90.64
59337;BME280;45115;52.002;4.686;2023-03-23T05:05:18;100171.28;;;10.88;91.08
59337;BME280;45115;52.002;4.686;2023-03-23T05:07:46;100193.03;;;10.90;91.53
59337;BME280;45115;52.002;4.686;2023-03-23T05:10:17;100192.03;;;10.91;90.97
59337;BME280;45115;52.002;4.686;2023-03-23T05:12:45;100197.84;;;10.88;90.55
59337;BME280;45115;52.002;4.686;2023-03-23T05:15:14;100183.44;;;10.86;91.33
59337;BME280;45115;52.002;4.686;2023-03-23T05:17:42;100185.63;;;10.82;91.02
59337;BME280;45115;52.002;4.686;2023-03-23T05:20:15;100202.53;;;10.78;91.24
59337;BME280;45115;52.002;4.686;2023-03-23T05:22:48;100186.44;;;10.75;90.99
59337;BME280;45115;52.002;4.686;2023-03-23T05:25:21;100189.88;;;10.77;91.21
59337;BME280;45115;52.002;4.686;2023-03-23T05:27:58;100191.44;;;10.79;90.19
59337;BME280;45115;52.002;4.686;2023-03-23T05:30:42;100201.09;;;10.91;88.71
59337;BME280;45115;52.002;4.686;2023-03-23T05:33:10;100203.84;;;10.91;89.37
59337;BME280;45115;52.002;4.686;2023-03-23T05:35:50;100211.19;;;10.91;89.18
59337;BME280;45115;52.002;4.686;2023-03-23T05:38:23;100220.28;;;10.91;89.34
59337;BME280;45115;52.002;4.686;2023-03-23T05:40:59;100225.75;;;10.91;89.62
59337;BME280;45115;52.002;4.686;2023-03-23T05:43:32;100228.63;;;10.90;89.91
59337;BME280;45115;52.002;4.686;2023-03-23T05:46:34;100228.16;;;10.94;89.59
59337;BME280;45115;52.002;4.686;2023-03-23T05:49:01;100229.34;;;10.92;90.86
59337;BME280;45115;52.002;4.686;2023-03-23T05:51:35;100224.53;;;10.86;91.54
59337;BME280;45115;52.002;4.686;2023-03-23T05:54:03;100242.47;;;10.80;91.90
59337;BME280;45115;52.002;4.686;2023-03-23T05:56:32;100239.53;;;10.74;92.92
59337;BME280;45115;52.002;4.686;2023-03-23T05:58:59;100244.13;;;10.73;93.47
59337;BME280;45115;52.002;4.686;2023-03-23T06:01:26;100254.53;;;10.70;93.34
59337;BME280;45115;52.002;4.686;2023-03-23T06:03:53;100250.22;;;10.67;93.68
59337;BME280;45115;52.002;4.686;2023-03-23T06:06:29;100252.50;;;10.72;92.60
59337;BME280;45115;52.002;4.686;2023-03-23T06:09:04;100254.22;;;10.73;92.35
59337;BME280;45115;52.002;4.686;2023-03-23T06:11:56;100245.16;;;10.72;92.05
59337;BME280;45115;52.002;4.686;2023-03-23T06:14:31;100250.78;;;10.71;92.07
59337;BME280;45115;52.002;4.686;2023-03-23T06:16:58;100252.13;;;10.67;92.18
59337;BME280;45115;52.002;4.686;2023-03-23T06:19:25;100268.25;;;10.70;91.14
59337;BME280;45115;52.002;4.686;2023-03-23T06:22:03;100261.59;;;10.72;91.17
59337;BME280;45115;52.002;4.686;2023-03-23T06:24:54;100266.03;;;10.73;90.52
59337;BME280;45115;52.002;4.686;2023-03-23T06:27:28;100269.66;;;10.74;90.83
59337;BME280;45115;52.002;4.686;2023-03-23T06:29:56;100266.09;;;10.81;90.96
59337;BME280;45115;52.002;4.686;2023-03-23T06:32:24;100274.56;;;10.88;90.26
59337;BME280;45115;52.002;4.686;2023-03-23T06:34:51;100273.84;;;10.86;90.57
59337;BME280;45115;52.002;4.686;2023-03-23T06:37:53;100276.97;;;10.91;89.73
59337;BME280;45115;52.002;4.686;2023-03-23T06:40:29;100273.19;;;10.92;89.35
59337;BME280;45115;52.002;4.686;2023-03-23T06:42:58;100279.19;;;10.95;89.11
59337;BME280;45115;52.002;4.686;2023-03-23T06:45:28;100274.44;;;10.97;88.82
59337;BME280;45115;52.002;4.686;2023-03-23T06:48:13;100274.09;;;11.00;88.68
59337;BME280;45115;52.002;4.686;2023-03-23T06:50:42;100282.84;;;11.04;88.71
59337;BME280;45115;52.002;4.686;2023-03-23T06:53:09;100296.56;;;11.04;88.79
59337;BME280;45115;52.002;4.686;2023-03-23T06:55:36;100285.06;;;11.00;88.95
59337;BME280;45115;52.002;4.686;2023-03-23T06:58:05;100282.31;;;11.00;87.78
59337;BME280;45115;52.002;4.686;2023-03-23T07:00:32;100288.03;;;11.07;87.25
59337;BME280;45115;52.002;4.686;2023-03-23T07:02:59;100292.56;;;11.16;87.14
59337;BME280;45115;52.002;4.686;2023-03-23T07:05:26;100291.88;;;11.22;87.25
59337;BME280;45115;52.002;4.686;2023-03-23T07:07:53;100292.06;;;11.20;86.74
59337;BME280;45115;52.002;4.686;2023-03-23T07:10:29;100288.97;;;11.23;86.88
59337;BME280;45115;52.002;4.686;2023-03-23T07:12:57;100297.91;;;11.25;87.05
59337;BME280;45115;52.002;4.686;2023-03-23T07:15:26;100297.03;;;11.25;86.51
59337;BME280;45115;52.002;4.686;2023-03-23T07:17:55;100297.69;;;11.19;86.93
59337;BME280;45115;52.002;4.686;2023-03-23T07:20:29;100298.56;;;11.19;86.79
59337;BME280;45115;52.002;4.686;2023-03-23T07:22:56;100306.09;;;11.17;87.70
59337;BME280;45115;52.002;4.686;2023-03-23T07:25:38;100303.00;;;11.20;87.04
59337;BME280;45115;52.002;4.686;2023-03-23T07:28:07;100303.75;;;11.31;87.58
59337;BME280;45115;52.002;4.686;2023-03-23T07:30:35;100301.47;;;11.52;87.12
59337;BME280;45115;52.002;4.686;2023-03-23T07:33:04;100304.31;;;11.68;86.36
59337;BME280;45115;52.002;4.686;2023-03-23T07:35:32;100299.31;;;11.63;85.62
59337;BME280;45115;52.002;4.686;2023-03-23T07:38:05;100298.88;;;11.50;86.63
59337;BME280;45115;52.002;4.686;2023-03-23T07:40:33;100291.63;;;11.41;86.53
59337;BME280;45115;52.002;4.686;2023-03-23T07:43:08;100306.16;;;11.34;86.10
59337;BME280;45115;52.002;4.686;2023-03-23T07:46:02;100301.97;;;11.21;86.74
59337;BME280;45115;52.002;4.686;2023-03-23T07:48:42;100313.16;;;11.87;85.62
59337;BME280;45115;52.002;4.686;2023-03-23T07:51:09;100312.94;;;12.47;83.56
59337;BME280;45115;52.002;4.686;2023-03-23T07:53:36;100307.13;;;12.82;82.17
59337;BME280;45115;52.002;4.686;2023-03-23T07:56:20;100319.50;;;12.86;80.88
59337;BME280;45115;52.002;4.686;2023-03-23T07:58:57;100326.66;;;12.55;82.33
59337;BME280;45115;52.002;4.686;2023-03-23T08:01:25;100328.88;;;12.35;82.68
59337;BME280;45115;52.002;4.686;2023-03-23T08:04:15;100329.03;;;12.17;83.82
59337;BME280;45115;52.002;4.686;2023-03-23T08:07:08;100315.78;;;12.13;83.92
59337;BME280;45115;52.002;4.686;2023-03-23T08:09:56;100321.28;;;12.13;84.40
59337;BME280;45115;52.002;4.686;2023-03-23T08:12:38;100342.41;;;12.20;84.45
59337;BME280;45115;52.002;4.686;2023-03-23T08:15:26;100333.66;;;12.25;84.76
59337;BME280;45115;52.002;4.686;2023-03-23T08:18:21;100328.41;;;12.56;84.75
59337;BME280;45115;52.002;4.686;2023-03-23T08:21:19;100329.44;;;13.27;81.11
59337;BME280;45115;52.002;4.686;2023-03-23T08:24:13;100332.16;;;14.28;77.30
59337;BME280;45115;52.002;4.686;2023-03-23T08:27:07;100336.34;;;14.70;75.90
59337;BME280;45115;52.002;4.686;2023-03-23T08:29:52;100349.00;;;14.64;74.96
59337;BME280;45115;52.002;4.686;2023-03-23T08:32:42;100340.28;;;14.14;76.18
59337;BME280;45115;52.002;4.686;2023-03-23T08:35:29;100330.47;;;13.81;76.57
59337;BME280;45115;52.002;4.686;2023-03-23T08:38:16;100346.03;;;14.04;75.87
59337;BME280;45115;52.002;4.686;2023-03-23T08:40:43;100345.34;;;14.02;75.72
59337;BME280;45115;52.002;4.686;2023-03-23T08:43:30;100359.22;;;13.78;76.06
59337;BME280;45115;52.002;4.686;2023-03-23T08:46:20;100356.22;;;13.41;75.91
59337;BME280;45115;52.002;4.686;2023-03-23T08:49:05;100355.34;;;13.40;76.95
59337;BME280;45115;52.002;4.686;2023-03-23T08:51:33;100373.41;;;13.35;76.66
59337;BME280;45115;52.002;4.686;2023-03-23T08:54:24;100370.19;;;13.15;75.65
59337;BME280;45115;52.002;4.686;2023-03-23T08:57:16;100366.75;;;13.21;76.70
59337;BME280;45115;52.002;4.686;2023-03-23T09:00:06;100356.06;;;13.42;75.47
59337;BME280;45115;52.002;4.686;2023-03-23T09:02:55;100361.78;;;13.17;75.96
59337;BME280;45115;52.002;4.686;2023-03-23T09:05:30;100356.94;;;13.27;75.66
59337;BME280;45115;52.002;4.686;2023-03-23T09:08:19;100368.28;;;13.24;74.36
59337;BME280;45115;52.002;4.686;2023-03-23T09:10:54;100358.81;;;13.26;73.23
59337;BME280;45115;52.002;4.686;2023-03-23T09:13:21;100361.19;;;13.54;72.53
59337;BME280;45115;52.002;4.686;2023-03-23T09:15:53;100356.75;;;13.36;72.81
59337;BME280;45115;52.002;4.686;2023-03-23T09:18:20;100359.50;;;13.44;72.17
59337;BME280;45115;52.002;4.686;2023-03-23T09:20:49;100352.94;;;13.54;71.63
59337;BME280;45115;52.002;4.686;2023-03-23T09:23:17;100350.97;;;13.78;71.93
59337;BME280;45115;52.002;4.686;2023-03-23T09:25:44;100361.16;;;13.62;73.11
59337;BME280;45115;52.002;4.686;2023-03-23T09:28:11;100360.97;;;13.63;72.15
59337;BME280;45115;52.002;4.686;2023-03-23T09:30:41;100354.56;;;13.79;72.28
59337;BME280;45115;52.002;4.686;2023-03-23T09:33:09;100365.66;;;14.01;70.14
59337;BME280;45115;52.002;4.686;2023-03-23T09:35:36;100362.91;;;13.55;71.76
59337;BME280;45115;52.002;4.686;2023-03-23T09:38:05;100369.75;;;13.67;70.74
59337;BME280;45115;52.002;4.686;2023-03-23T09:40:42;100384.78;;;14.03;68.59
59337;BME280;45115;52.002;4.686;2023-03-23T09:43:40;100371.75;;;13.89;69.38
59337;BME280;45115;52.002;4.686;2023-03-23T09:46:21;100381.94;;;14.19;70.15
59337;BME280;45115;52.002;4.686;2023-03-23T09:48:52;100383.16;;;14.55;69.44
59337;BME280;45115;52.002;4.686;2023-03-23T09:51:29;100391.03;;;14.35;67.91
59337;BME280;45115;52.002;4.686;2023-03-23T09:54:02;100402.66;;;14.53;67.95
59337;BME280;45115;52.002;4.686;2023-03-23T09:56:34;100398.47;;;14.57;67.46
59337;BME280;45115;52.002;4.686;2023-03-23T09:59:05;100393.13;;;14.56;67.42
59337;BME280;45115;52.002;4.686;2023-03-23T10:01:38;100396.44;;;14.51;66.98
59337;BME280;45115;52.002;4.686;2023-03-23T10:04:12;100400.22;;;14.50;67.33
59337;BME280;45115;52.002;4.686;2023-03-23T10:06:40;100414.63;;;14.38;68.58
59337;BME280;45115;52.002;4.686;2023-03-23T10:09:14;100408.03;;;14.70;67.20
59337;BME280;45115;52.002;4.686;2023-03-23T10:11:52;100402.78;;;14.83;67.24
59337;BME280;45115;52.002;4.686;2023-03-23T10:14:28;100407.13;;;15.00;66.90
59337;BME280;45115;52.002;4.686;2023-03-23T10:17:03;100413.25;;;14.87;65.00
59337;BME280;45115;52.002;4.686;2023-03-23T10:19:38;100410.25;;;15.19;64.63
59337;BME280;45115;52.002;4.686;2023-03-23T10:22:09;100415.06;;;15.25;64.67
59337;BME280;45115;52.002;4.686;2023-03-23T10:24:43;100414.03;;;14.73;64.26
59337;BME280;45115;52.002;4.686;2023-03-23T10:27:20;100418.91;;;14.40;65.01
59337;BME280;45115;52.002;4.686;2023-03-23T10:29:55;100413.97;;;14.12;67.34
59337;BME280;45115;52.002;4.686;2023-03-23T10:32:37;100421.34;;;14.35;67.06
59337;BME280;45115;52.002;4.686;2023-03-23T10:35:09;100415.59;;;14.76;65.63
59337;BME280;45115;52.002;4.686;2023-03-23T10:37:40;100413.41;;;14.71;64.71
59337;BME280;45115;52.002;4.686;2023-03-23T10:40:13;100403.28;;;14.86;64.26
59337;BME280;45115;52.002;4.686;2023-03-23T10:42:43;100414.28;;;14.64;64.79
59337;BME280;45115;52.002;4.686;2023-03-23T10:45:16;100413.75;;;15.13;64.13
59337;BME280;45115;52.002;4.686;2023-03-23T10:47:47;100418.66;;;15.48;62.12
59337;BME280;45115;52.002;4.686;2023-03-23T10:50:22;100419.91;;;15.38;62.60
59337;BME280;45115;52.002;4.686;2023-03-23T10:52:51;100410.66;;;15.16;62.38
59337;BME280;45115;52.002;4.686;2023-03-23T10:55:20;100421.03;;;15.06;59.88
59337;BME280;45115;52.002;4.686;2023-03-23T10:58:00;100424.75;;;14.68;62.60
59337;BME280;45115;52.002;4.686;2023-03-23T11:00:28;100425.03;;;14.50;63.13
59337;BME280;45115;52.002;4.686;2023-03-23T11:03:00;100409.47;;;14.88;63.24
59337;BME280;45115;52.002;4.686;2023-03-23T11:05:34;100410.56;;;15.02;63.03
59337;BME280;45115;52.002;4.686;2023-03-23T11:08:02;100411.53;;;15.31;62.10
59337;BME280;45115;52.002;4.686;2023-03-23T11:10:35;100408.84;;;15.23;62.04
59337;BME280;45115;52.002;4.686;2023-03-23T11:13:04;100407.13;;;15.22;62.12
59337;BME280;45115;52.002;4.686;2023-03-23T11:15:37;100412.41;;;14.87;62.04
59337;BME280;45115;52.002;4.686;2023-03-23T11:18:05;100411.91;;;14.22;63.20
59337;BME280;45115;52.002;4.686;2023-03-23T11:20:37;100416.31;;;13.84;64.83
59337;BME280;45115;52.002;4.686;2023-03-23T11:23:10;100418.25;;;13.76;65.24
59337;BME280;45115;52.002;4.686;2023-03-23T11:25:56;100416.50;;;13.83;65.62
59337;BME280;45115;52.002;4.686;2023-03-23T11:28:29;100417.47;;;14.06;64.26
59337;BME280;45115;52.002;4.686;2023-03-23T11:30:58;100420.84;;;14.24;64.35
59337;BME280;45115;52.002;4.686;2023-03-23T11:33:29;100412.41;;;14.17;64.04
59337;BME280;45115;52.002;4.686;2023-03-23T11:35:56;100407.97;;;14.16;64.84
59337;BME280;45115;52.002;4.686;2023-03-23T11:38:24;100409.31;;;14.28;65.06
59337;BME280;45115;52.002;4.686;2023-03-23T11:40:53;100407.53;;;14.66;64.48
59337;BME280;45115;52.002;4.686;2023-03-23T11:43:21;100399.63;;;14.94;63.29
59337;BME280;45115;52.002;4.686;2023-03-23T11:45:58;100405.63;;;15.20;62.33
59337;BME280;45115;52.002;4.686;2023-03-23T11:48:33;100412.66;;;15.22;61.92
59337;BME280;45115;52.002;4.686;2023-03-23T11:51:04;100407.50;;;15.42;63.20
59337;BME280;45115;52.002;4.686;2023-03-23T11:53:47;100402.53;;;15.37;63.44
59337;BME280;45115;52.002;4.686;2023-03-23T11:56:24;100415.34;;;15.53;62.35
59337;BME280;45115;52.002;4.686;2023-03-23T11:58:53;100407.69;;;15.78;60.98
59337;BME280;45115;52.002;4.686;2023-03-23T12:01:37;100417.66;;;15.19;62.20
59337;BME280;45115;52.002;4.686;2023-03-23T12:04:25;100428.66;;;14.82;62.12
59337;BME280;45115;52.002;4.686;2023-03-23T12:06:58;100421.91;;;15.07;62.24
59337;BME280;45115;52.002;4.686;2023-03-23T12:09:42;100410.88;;;15.67;61.80
59337;BME280;45115;52.002;4.686;2023-03-23T12:12:16;100408.69;;;15.77;60.39
59337;BME280;45115;52.002;4.686;2023-03-23T12:14:51;100419.75;;;16.20;58.41
59337;BME280;45115;52.002;4.686;2023-03-23T12:17:30;100407.59;;;16.00;57.10
59337;BME280;45115;52.002;4.686;2023-03-23T12:20:08;100401.09;;;16.08;58.27
59337;BME280;45115;52.002;4.686;2023-03-23T12:22:49;100393.97;;;15.99;58.67
59337;BME280;45115;52.002;4.686;2023-03-23T12:25:45;100399.38;;;15.78;59.40
59337;BME280;45115;52.002;4.686;2023-03-23T12:28:22;100395.38;;;15.66;58.90
59337;BME280;45115;52.002;4.686;2023-03-23T12:30:59;100389.19;;;15.78;57.84
59337;BME280;45115;52.002;4.686;2023-03-23T12:33:38;100399.75;;;15.60;58.74
59337;BME280;45115;52.002;4.686;2023-03-23T12:36:36;100390.94;;;15.42;60.48
59337;BME280;45115;52.002;4.686;2023-03-23T12:39:34;100394.59;;;15.34;61.06
59337;BME280;45115;52.002;4.686;2023-03-23T12:42:07;100390.06;;;15.41;61.89
59337;BME280;45115;52.002;4.686;2023-03-23T12:44:41;100405.53;;;15.28;61.05
59337;BME280;45115;52.002;4.686;2023-03-23T12:47:24;100397.69;;;15.91;62.71
59337;BME280;45115;52.002;4.686;2023-03-23T12:49:58;100386.53;;;16.14;60.55
59337;BME280;45115;52.002;4.686;2023-03-23T12:52:33;100381.06;;;16.20;60.00
59337;BME280;45115;52.002;4.686;2023-03-23T12:55:05;100383.09;;;16.12;60.68
59337;BME280;45115;52.002;4.686;2023-03-23T12:57:40;100375.06;;;16.31;61.25
59337;BME280;45115;52.002;4.686;2023-03-23T13:00:14;100382.34;;;16.18;58.80
59337;BME280;45115;52.002;4.686;2023-03-23T13:02:48;100392.31;;;16.04;59.77
59337;BME280;45115;52.002;4.686;2023-03-23T13:05:40;100398.81;;;16.11;59.42
59337;BME280;45115;52.002;4.686;2023-03-23T13:08:15;100397.56;;;15.99;59.20
59337;BME280;45115;52.002;4.686;2023-03-23T13:10:45;100417.38;;;16.03;59.88
59337;BME280;45115;52.002;4.686;2023-03-23T13:13:17;100413.63;;;15.52;58.13
59337;BME280;45115;52.002;4.686;2023-03-23T13:15:55;100399.16;;;15.27;59.42
59337;BME280;45115;52.002;4.686;2023-03-23T13:18:40;100401.56;;;15.30;59.22
59337;BME280;45115;52.002;4.686;2023-03-23T13:21:18;100398.72;;;15.76;58.11
59337;BME280;45115;52.002;4.686;2023-03-23T13:23:49;100397.19;;;16.31;56.61
59337;BME280;45115;52.002;4.686;2023-03-23T13:26:19;100394.59;;;16.80;55.73
59337;BME280;45115;52.002;4.686;2023-03-23T13:28:56;100399.47;;;16.42;55.80
59337;BME280;45115;52.002;4.686;2023-03-23T13:31:26;100402.06;;;16.00;57.29